Aérodrome :
LOGIN :

S'inscrire | Disclaimer

   EN    FR    IT 

 










Légende :    VFR   VFR Marginal   IFR   IFR Intensif   IFR Très Intensif
Visi : 
Plafond : 
>= 8 km
>= 3000ft
5 à 8 km
1000 à 3000 ft
1500m à 5 km
500 à 1000 ft
800 à 1500m
200 à 500 ft
< 800m
< 200 ft
Symboles :   Orages  Brouillard  Fortes neiges  Fortes précipitations  Vent > 20 kt
SIGMETs :   Divers  Orages  Givrage  Turbulence  Onde Orograph.  Cendres Volcan.







- Altitude de l'aérodrome : 1411 ft
- Code IATA : GVA


LSGG - Genève Cointrin

DERNIER METAR :
  • 172050Z 04009KT 9999 SCT015 BKN020 07/03 Q1023 NOSIG

METARs EXPIRÉS :
  • 172020Z 05010KT 9999 SCT015 BKN020 07/03 Q1022 NOSIG
  • 171950Z 04012KT 9999 SCT015 BKN020 07/03 Q1023 NOSIG
  • 171920Z 04012KT 9999 SCT015 BKN020 07/04 Q1023 NOSIG
  • 171850Z 04011KT 9999 SCT015 BKN020 07/03 Q1023 NOSIG
  • 171820Z 04012KT 9999 FEW015 BKN020 BKN030 07/04 Q1023 NOSIG

TAF TAF LSGG
Valide du 17 à 21h jusqu'au 19 à 03h UTC


172025Z 1721/1903 05010KT 9999 SCT015 BKN020 TX06/1814Z TN02/1806Z
BECMG 1802/1804 VRB03KT BKN014
PROB40 1812/1818 SCT015
ATIS : +41 22 417 40 81
Pas de NOTAMs connus pour ce terrain.



MET'MAP, la Météo Aéronautique d'un coup d'oeil ! - Copyright ORBIFLY Décembre 2007 - Disclaimer

ORBIFLY MET'MAP TEAM :

Programmation & Développement : Alexandra Zaïnal
Conception & Développement : Baudouin d'Aumeries
Co-Programmation & Développement : Marc-Olivier Méhu
Soutien technique & logistique : Manuel Goepfert

Contact : metmap@orbifly.com




SOURCES & CREDITS :

   NOAA